Cosco Tengfei — HPMO — position and weather

sailwx.info

Track history (hours):
 
Tides and Currents Weather Stations Pressure Air Temp Water Temp Dewpoint Dewpoint Depression Visibility Wind Speed Wind Dir Waves Ship Positions

Cosco Tengfei

Last reported at 2014-Nov-16 20:31 UTC. Time now 2014-Nov-24 21:34 UTC.
Position N 01°08' E 103°44'.
Warning: this ship's position is 8 days out of date.

Length 183 m; draft 9.2 m.

Type: Cargo ship. MMSI: 355518000.

Date/timePositionNaut miles runAvg speedWind from/ knotsBaromVisibWave heightAir tempDewpointWater temp
2014-Nov-16 20:31N 01°08' E 103°44'1415.0
2014-Nov-16 19:33N 01°15' E 103°57'2 1.1
2014-Nov-16 17:22N 01°17' E 103°58'0 0.0
2014-Nov-16 15:31N 01°17' E 103°58'0 0.0
2014-Nov-16 14:30N 01°17' E 103°58'0 0.0
2014-Nov-16 13:31N 01°17' E 103°58'0 0.0
2014-Nov-16 10:18N 01°17' E 103°58'0 0.0
2014-Nov-16 09:13N 01°17' E 103°58'0 0.0
2014-Nov-16 08:30N 01°17' E 103°58'0 0.1
2014-Nov-16 07:25N 01°17' E 103°58'0 0.0
2014-Nov-16 06:07N 01°17' E 103°58'0 0.0
2014-Nov-16 05:07N 01°17' E 103°58'0 0.1
2014-Nov-16 04:30N 01°17' E 103°58'0 0.0
2014-Nov-16 01:19N 01°17' E 103°58'2 1.9
2014-Nov-16 00:31N 01°16' E 103°59'7 6.6
2014-Nov-15 23:30N 01°17' E 104°06'6 6.8
2014-Nov-15 22:33N 01°17' E 104°12'1210.7
2014-Nov-15 21:28N 01°22' E 104°23'  
2014-Nov-11 11:09N 23°28' E 117°41'1115.8
2014-Nov-11 10:29N 23°35' E 117°49'1515.8
2014-Nov-11 09:33N 23°45' E 118°01'1716.4
2014-Nov-11 08:32N 23°56' E 118°15'1616.1
2014-Nov-11 07:33N 24°07' E 118°27'2116.2
2014-Nov-11 06:15N 24°21' E 118°44'3116.2
2014-Nov-11 04:20N 24°41' E 119°10'35215.1
2014-Nov-10 05:04N 29°33' E 122°50'115 9.9
2014-Nov-09 17:27N 31°16' E 121°51'9 9.8
2014-Nov-09 16:30N 31°19' E 121°41'0 0.0
2014-Nov-09 15:07N 31°19' E 121°41'0 0.0
2014-Nov-09 14:31N 31°19' E 121°41'0 0.0
2014-Nov-09 13:19N 31°19' E 121°41'0 0.0
2014-Nov-09 12:25N 31°19' E 121°41'0 0.0
2014-Nov-09 11:25N 31°19' E 121°41'0 0.0
2014-Nov-09 10:13N 31°19' E 121°41'0 0.0
2014-Nov-09 09:25N 31°19' E 121°41'0 0.0
2014-Nov-09 08:31N 31°19' E 121°41'0 0.0
2014-Nov-09 06:25N 31°19' E 121°41'0 0.0
2014-Nov-09 05:31N 31°19' E 121°41'1 1.3
2014-Nov-09 04:32N 31°20' E 121°40'5 4.7
2014-Nov-09 03:30N 31°18' E 121°45'  
Track history (hours):
 
Tides and Currents Weather Stations Pressure Air Temp Water Temp Dewpoint Dewpoint Depression Visibility Wind Speed Wind Dir Waves Ship Positions

Cosco Tengfei

Last reported at 2014-Nov-16 20:31 UTC. Time now 2014-Nov-24 21:34 UTC.
Position N 01°08' E 103°44'.
Warning: this ship's position is 8 days out of date.

Length 183 m; draft 9.2 m.

Type: Cargo ship. MMSI: 355518000.

Date/timePositionNaut miles runAvg speedWind from/ knotsBaromVisibWave heightAir tempDewpointWater temp
2014-Nov-16 20:31N 01°08' E 103°44'1415.0
2014-Nov-16 19:33N 01°15' E 103°57'2 1.1
2014-Nov-16 17:22N 01°17' E 103°58'0 0.0
2014-Nov-16 15:31N 01°17' E 103°58'0 0.0
2014-Nov-16 14:30N 01°17' E 103°58'0 0.0
2014-Nov-16 13:31N 01°17' E 103°58'0 0.0
2014-Nov-16 10:18N 01°17' E 103°58'0 0.0
2014-Nov-16 09:13N 01°17' E 103°58'0 0.0
2014-Nov-16 08:30N 01°17' E 103°58'0 0.1
2014-Nov-16 07:25N 01°17' E 103°58'0 0.0
2014-Nov-16 06:07N 01°17' E 103°58'0 0.0
2014-Nov-16 05:07N 01°17' E 103°58'0 0.1
2014-Nov-16 04:30N 01°17' E 103°58'0 0.0
2014-Nov-16 01:19N 01°17' E 103°58'2 1.9
2014-Nov-16 00:31N 01°16' E 103°59'7 6.6
2014-Nov-15 23:30N 01°17' E 104°06'6 6.8
2014-Nov-15 22:33N 01°17' E 104°12'1210.7
2014-Nov-15 21:28N 01°22' E 104°23'  
2014-Nov-11 11:09N 23°28' E 117°41'1115.8
2014-Nov-11 10:29N 23°35' E 117°49'1515.8
2014-Nov-11 09:33N 23°45' E 118°01'1716.4
2014-Nov-11 08:32N 23°56' E 118°15'1616.1
2014-Nov-11 07:33N 24°07' E 118°27'2116.2
2014-Nov-11 06:15N 24°21' E 118°44'3116.2
2014-Nov-11 04:20N 24°41' E 119°10'35215.1
2014-Nov-10 05:04N 29°33' E 122°50'115 9.9
2014-Nov-09 17:27N 31°16' E 121°51'9 9.8
2014-Nov-09 16:30N 31°19' E 121°41'0 0.0
2014-Nov-09 15:07N 31°19' E 121°41'0 0.0
2014-Nov-09 14:31N 31°19' E 121°41'0 0.0
2014-Nov-09 13:19N 31°19' E 121°41'0 0.0
2014-Nov-09 12:25N 31°19' E 121°41'0 0.0
2014-Nov-09 11:25N 31°19' E 121°41'0 0.0
2014-Nov-09 10:13N 31°19' E 121°41'0 0.0
2014-Nov-09 09:25N 31°19' E 121°41'0 0.0
2014-Nov-09 08:31N 31°19' E 121°41'0 0.0
2014-Nov-09 06:25N 31°19' E 121°41'0 0.0
2014-Nov-09 05:31N 31°19' E 121°41'1 1.3
2014-Nov-09 04:32N 31°20' E 121°40'5 4.7
2014-Nov-09 03:30N 31°18' E 121°45'  

Dump ship's entire track history